Time;durP1;ratioP1;P1;durP2;ratioP2;P2;SDS_P1;SDS_P2;PMS_P1;PMS_P2;Temp;Humidity;BMP_temperature;BMP_pressure;BME280_temperature;BME280_humidity;BME280_pressure;Samples;Min_cycle;Max_cycle;Signal;HPM_P1;HPM_P2
2022/08/05 00:01:01;;;;;;;1.30;1.20;;;;;;;23.87;47.05;100799.56;5074803;28;20447;-68
2022/08/05 00:03:26;;;;;;;1.15;1.15;;;;;;;23.90;47.12;100804.50;5074807;28;20459;-68
2022/08/05 00:05:51;;;;;;;1.20;1.10;;;;;;;23.89;47.02;100802.88;5074648;28;20025;-67
2022/08/05 00:08:18;;;;;;;1.38;1.27;;;;;;;23.89;46.95;100797.41;5074713;28;20031;-67
2022/08/05 00:10:43;;;;;;;1.40;1.33;;;;;;;23.88;47.19;100806.69;5073076;28;20044;-67
2022/08/05 00:13:09;;;;;;;1.17;1.15;;;;;;;23.88;46.96;100798.50;5074446;28;20078;-67
2022/08/05 00:15:34;;;;;;;1.48;1.38;;;;;;;23.84;46.86;100795.47;5074505;28;20028;-67
2022/08/05 00:17:59;;;;;;;1.35;1.25;;;;;;;23.88;46.84;100801.22;5074373;28;20482;-67
2022/08/05 00:20:25;;;;;;;1.40;1.30;;;;;;;23.87;46.73;100799.56;5074019;28;20477;-67
2022/08/05 00:22:50;;;;;;;1.27;1.17;;;;;;;23.88;46.88;100798.50;5074233;28;20029;-67
2022/08/05 00:25:16;;;;;;;1.15;1.15;;;;;;;23.87;47.15;100800.41;5074524;28;20451;-67
2022/08/05 00:27:41;;;;;;;1.40;1.30;;;;;;;23.87;46.73;100796.84;5072999;28;20421;-67
2022/08/05 00:30:07;;;;;;;1.25;1.15;;;;;;;23.85;46.72;100796.28;5073107;28;20421;-67
2022/08/05 00:32:33;;;;;;;1.40;1.30;;;;;;;23.86;46.77;100797.94;5073657;28;20048;-67
2022/08/05 00:34:58;;;;;;;1.67;1.58;;;;;;;23.86;46.91;100793.31;5073930;28;20047;-67
2022/08/05 00:37:24;;;;;;;1.60;1.30;;;;;;;23.86;46.50;100798.75;5073764;28;20078;-67
2022/08/05 00:39:49;;;;;;;1.40;1.30;;;;;;;23.86;46.74;100797.94;5072652;28;20066;-67
2022/08/05 00:42:15;;;;;;;1.40;1.30;;;;;;;23.86;46.87;100797.94;5073776;28;20028;-67
2022/08/05 00:44:41;;;;;;;1.65;1.55;;;;;;;23.85;46.98;100799.03;5073657;28;20391;-66
2022/08/05 00:47:07;;;;;;;1.40;1.30;;;;;;;23.85;46.84;100801.75;5074174;28;20033;-66
2022/08/05 00:49:32;;;;;;;1.48;1.38;;;;;;;23.84;46.74;100803.66;5073676;28;20029;-66
2022/08/05 00:51:58;;;;;;;1.25;1.15;;;;;;;23.84;46.61;100805.59;5064614;28;20029;-66
2022/08/05 00:54:23;;;;;;;1.40;1.30;;;;;;;23.83;46.68;100799.28;5053915;28;20021;-66
2022/08/05 00:56:49;;;;;;;1.30;1.20;;;;;;;23.82;47.04;100794.94;5053603;28;20025;-66
2022/08/05 00:59:14;;;;;;;1.30;1.20;;;;;;;23.83;47.10;100798.47;5053445;28;20036;-67
2022/08/05 01:01:40;;;;;;;1.60;1.50;;;;;;;23.83;46.73;100793.00;5052071;28;20021;-67
2022/08/05 01:04:05;;;;;;;1.42;1.33;;;;;;;23.83;46.77;100793.81;5053595;28;20025;-67
2022/08/05 01:06:31;;;;;;;1.50;1.40;;;;;;;23.83;46.97;100793.81;5053505;28;20017;-67
2022/08/05 01:08:56;;;;;;;1.42;1.33;;;;;;;23.83;47.03;100793.00;5053143;28;20471;-67
2022/08/05 01:11:23;;;;;;;1.02;1.02;;;;;;;23.82;47.15;100797.66;5053188;28;20048;-68
2022/08/05 01:14:28;;;;;;;1.40;1.30;;;;;;;23.85;47.32;100796.28;5053915;28;20079;-68
2022/08/05 01:17:11;;;;;;;1.42;1.33;;;;;;;23.86;47.12;100795.22;5051914;28;20025;-67
2022/08/05 01:19:39;;;;;;;1.40;1.30;;;;;;;23.83;46.93;100787.56;5051945;28;20479;-67
2022/08/05 01:22:14;;;;;;;1.50;1.40;;;;;;;23.83;47.00;100782.09;5053313;28;20044;-67
2022/08/05 01:24:48;;;;;;;1.10;1.10;;;;;;;23.83;47.45;100782.09;5053046;28;20430;-67
2022/08/05 01:27:38;;;;;;;1.35;1.25;;;;;;;23.83;47.66;100791.09;5052991;28;20083;-66
2022/08/05 01:30:04;;;;;;;1.17;1.17;;;;;;;23.80;47.35;100784.25;5052983;28;20475;-66
2022/08/05 01:32:31;;;;;;;1.33;1.23;;;;;;;23.79;47.37;100779.88;5052497;28;20067;-66
2022/08/05 01:35:05;;;;;;;1.48;1.38;;;;;;;23.80;47.40;100777.94;5035452;28;20029;-67
2022/08/05 01:37:39;;;;;;;1.50;1.40;;;;;;;23.80;47.21;100783.41;5052113;28;20033;-67
2022/08/05 01:40:05;;;;;;;1.63;1.52;;;;;;;23.81;47.50;100793.28;5053396;28;20033;-67
2022/08/05 01:42:30;;;;;;;1.20;1.10;;;;;;;23.80;47.60;100786.97;5052043;28;20460;-67
2022/08/05 01:44:56;;;;;;;1.52;1.42;;;;;;;23.81;47.66;100783.19;5051810;28;20036;-67
2022/08/05 01:47:21;;;;;;;1.52;1.42;;;;;;;23.79;47.67;100788.06;5052055;28;20029;-67
2022/08/05 01:49:47;;;;;;;1.45;1.35;;;;;;;23.79;47.63;100782.59;5056655;28;20025;-67
2022/08/05 01:52:13;;;;;;;1.55;1.40;;;;;;;23.78;47.63;100778.25;5049090;28;20024;-67
2022/08/05 01:54:44;;;;;;;1.20;1.17;;;;;;;23.77;47.87;100782.03;5076958;28;20020;-67
2022/08/05 01:57:09;;;;;;;1.50;1.40;;;;;;;23.78;47.88;100780.97;5077321;28;20032;-67
2022/08/05 01:59:35;;;;;;;1.40;1.30;;;;;;;23.78;48.06;100775.50;5076040;28;20027;-67
2022/08/05 02:02:00;;;;;;;1.40;1.30;;;;;;;23.79;47.98;100779.06;5075880;28;20454;-67
2022/08/05 02:04:27;;;;;;;1.40;1.30;;;;;;;23.77;47.84;100773.88;5075886;28;20025;-67
2022/08/05 02:06:53;;;;;;;1.33;1.23;;;;;;;23.78;47.86;100770.06;5075490;28;20025;-68
2022/08/05 02:09:18;;;;;;;1.40;1.30;;;;;;;23.75;48.03;100765.13;5075668;28;20025;-67
2022/08/05 02:11:53;;;;;;;1.45;1.33;;;;;;;23.78;48.15;100763.75;5075662;28;20020;-67
2022/08/05 02:14:42;;;;;;;1.58;1.45;;;;;;;23.81;48.42;100763.25;5076571;28;20028;-67
2022/08/05 02:17:16;;;;;;;1.60;1.50;;;;;;;23.77;47.81;100768.41;5075774;28;20043;-68
2022/08/05 02:19:50;;;;;;;1.50;1.40;;;;;;;23.78;47.93;100770.06;5075362;28;20105;-67
2022/08/05 02:22:18;;;;;;;1.67;1.58;;;;;;;23.79;48.10;100774.41;5075636;28;20035;-67
2022/08/05 02:24:46;;;;;;;1.55;1.45;;;;;;;23.77;48.27;100775.78;5059084;28;20032;-67
2022/08/05 02:27:12;;;;;;;1.50;1.40;;;;;;;23.77;48.13;100773.06;5059001;28;20111;-67
2022/08/05 02:29:39;;;;;;;1.60;1.50;;;;;;;23.77;48.26;100771.13;5075432;28;20025;-68
2022/08/05 02:32:05;;;;;;;1.48;1.38;;;;;;;23.77;48.50;100778.50;5058278;28;20053;-68
2022/08/05 02:34:31;;;;;;;1.60;1.50;;;;;;;23.77;48.23;100764.88;5058371;28;20462;-68
2022/08/05 02:36:58;;;;;;;1.50;1.40;;;;;;;23.75;48.38;100765.13;5074965;28;20020;-66
2022/08/05 02:39:24;;;;;;;1.50;1.40;;;;;;;23.75;48.64;100756.09;5058915;28;20024;-67
2022/08/05 02:41:50;;;;;;;1.60;1.50;;;;;;;23.76;48.34;100761.28;5075770;28;20434;-67
2022/08/05 02:44:15;;;;;;;1.50;1.40;;;;;;;23.75;48.71;100762.41;5075246;28;20048;-67
2022/08/05 02:46:44;;;;;;;1.60;1.50;;;;;;;23.75;48.54;100758.81;5058223;28;20138;-67
2022/08/05 02:49:10;;;;;;;1.40;1.30;;;;;;;23.76;48.71;100755.84;5058767;28;20020;-67
2022/08/05 02:51:36;;;;;;;1.40;1.30;;;;;;;23.75;48.63;100759.66;5071293;28;20482;-67
2022/08/05 02:54:01;;;;;;;1.30;1.20;;;;;;;23.75;48.63;100754.22;5038044;28;20033;-67
2022/08/05 02:56:27;;;;;;;1.23;1.23;;;;;;;23.75;48.84;100747.91;5055971;28;20028;-67
2022/08/05 02:58:52;;;;;;;1.50;1.40;;;;;;;23.74;48.67;100749.00;5054844;28;20056;-67
2022/08/05 03:01:24;;;;;;;1.70;1.60;;;;;;;23.75;48.72;100754.22;5054333;28;20513;-67
2022/08/05 03:03:52;;;;;;;1.50;1.40;;;;;;;23.74;48.74;100741.63;5055932;28;20043;-67
2022/08/05 03:06:18;;;;;;;1.70;1.60;;;;;;;23.74;48.79;100744.38;5055060;28;20048;-67
2022/08/05 03:08:43;;;;;;;1.63;1.52;;;;;;;23.73;48.88;100745.47;5055942;28;20117;-67
2022/08/05 03:11:20;;;;;;;1.80;1.70;;;;;;;23.73;49.52;100740.03;5054766;28;20021;-67
2022/08/05 03:13:45;;;;;;;1.60;1.50;;;;;;;23.73;49.08;100750.94;5056203;28;20107;-67
2022/08/05 03:16:11;;;;;;;1.40;1.30;;;;;;;23.72;49.34;100735.63;5056014;28;20375;-67
2022/08/05 03:18:36;;;;;;;1.70;1.60;;;;;;;23.72;49.46;100738.38;5056300;28;20032;-67
2022/08/05 03:21:01;;;;;;;1.63;1.52;;;;;;;23.73;49.30;100745.47;5056019;28;20032;-67
2022/08/05 03:23:27;;;;;;;1.80;1.70;;;;;;;23.73;49.08;100742.75;5056031;28;20035;-67
2022/08/05 03:25:52;;;;;;;1.73;1.63;;;;;;;23.71;49.25;100742.16;5055207;28;20025;-67
2022/08/05 03:28:18;;;;;;;1.20;1.20;;;;;;;23.70;49.15;100737.81;5038749;28;20451;-67
2022/08/05 03:30:43;;;;;;;1.58;1.48;;;;;;;23.71;49.24;100742.16;5054708;28;20083;-68
2022/08/05 03:33:09;;;;;;;1.70;1.60;;;;;;;23.73;49.22;100745.47;5055295;28;20045;-67
2022/08/05 03:35:34;;;;;;;1.65;1.55;;;;;;;23.76;49.32;100750.38;5040240;28;20029;-67
2022/08/05 03:38:00;;;;;;;1.90;1.80;;;;;;;23.76;49.43;100738.66;5057984;28;20029;-67
2022/08/05 03:40:25;;;;;;;1.77;1.67;;;;;;;23.78;49.82;100742.75;5055434;28;20033;-66
2022/08/05 03:42:51;;;;;;;1.52;1.42;;;;;;;23.78;49.81;100745.50;5054989;28;20376;-66
2022/08/05 03:45:16;;;;;;;1.58;1.48;;;;;;;23.81;49.91;100741.44;5055056;28;20112;-66
2022/08/05 03:47:42;;;;;;;1.38;1.27;;;;;;;23.82;49.88;100745.81;5054662;28;20017;-66
2022/08/05 03:50:07;;;;;;;1.50;1.40;;;;;;;23.75;50.06;100743.28;5054736;28;20021;-66
2022/08/05 03:52:34;;;;;;;1.50;1.40;;;;;;;23.84;49.69;100740.09;5065228;28;20024;-67
2022/08/05 03:55:01;;;;;;;1.30;1.20;;;;;;;23.83;49.60;100732.97;5057261;28;20016;-68
2022/08/05 03:57:28;;;;;;;1.92;1.63;;;;;;;23.89;49.54;100740.09;5073855;28;20073;-68
2022/08/05 04:00:12;;;;;;;1.40;1.30;;;;;;;23.95;49.85;100741.75;5073374;28;20035;-68
2022/08/05 04:02:37;;;;;;;1.50;1.40;;;;;;;23.93;49.57;100730.28;5073657;28;20024;-68
2022/08/05 04:05:03;;;;;;;1.33;1.27;;;;;;;23.97;49.52;100734.94;5073228;28;20020;-68
2022/08/05 04:07:29;;;;;;;1.58;1.48;;;;;;;23.98;49.50;100731.09;5074720;28;20063;-68
2022/08/05 04:09:54;;;;;;;1.70;1.60;;;;;;;24.02;49.58;100730.56;5073147;28;20032;-68
2022/08/05 04:12:21;;;;;;;1.70;1.60;;;;;;;24.02;49.82;100731.38;5055066;28;20054;-68
2022/08/05 04:14:46;;;;;;;1.90;1.60;;;;;;;24.05;49.77;100740.97;5072995;28;20121;-68
2022/08/05 04:17:11;;;;;;;1.58;1.48;;;;;;;24.07;49.11;100731.41;5072675;28;20469;-68
2022/08/05 04:19:41;;;;;;;1.65;1.55;;;;;;;24.08;48.81;100732.25;5073005;28;20028;-67
2022/08/05 04:22:07;;;;;;;1.60;1.50;;;;;;;24.07;49.19;100733.31;5074212;28;20024;-67
2022/08/05 04:24:32;;;;;;;1.50;1.40;;;;;;;24.09;49.41;100737.41;5074106;28;20348;-67
2022/08/05 04:26:58;;;;;;;1.50;1.40;;;;;;;24.12;48.92;100730.59;5074141;28;20484;-67
2022/08/05 04:29:23;;;;;;;1.70;1.60;;;;;;;24.13;49.17;100733.06;5073971;28;20035;-68
2022/08/05 04:31:48;;;;;;;2.53;1.88;;;;;;;24.13;49.54;100735.78;5073532;28;20418;-68
2022/08/05 04:34:14;;;;;;;2.00;1.90;;;;;;;24.04;49.30;100734.66;5073933;28;20383;-68
2022/08/05 04:36:39;;;;;;;1.70;1.60;;;;;;;23.91;49.61;100741.47;5074026;28;20386;-67
2022/08/05 04:39:05;;;;;;;1.50;1.40;;;;;;;23.85;49.96;100738.97;5073894;28;20370;-67
2022/08/05 04:41:30;;;;;;;1.60;1.50;;;;;;;23.89;49.58;100737.38;5074212;28;20111;-67
2022/08/05 04:43:56;;;;;;;1.80;1.70;;;;;;;23.86;49.69;100736.00;5074087;28;20044;-67
2022/08/05 04:46:22;;;;;;;1.73;1.63;;;;;;;23.86;49.97;100738.72;5072190;28;20029;-66
2022/08/05 04:48:47;;;;;;;1.60;1.50;;;;;;;23.88;50.08;100746.63;5073734;28;20032;-66
2022/08/05 04:51:13;;;;;;;1.83;1.52;;;;;;;23.89;49.72;100742.84;5073651;28;20021;-66
2022/08/05 04:53:39;;;;;;;2.17;1.70;;;;;;;23.87;49.95;100751.28;5054392;28;20036;-66
2022/08/05 04:56:06;;;;;;;2.03;1.80;;;;;;;23.98;50.10;100742.03;5053804;28;20053;-66
2022/08/05 04:58:31;;;;;;;1.88;1.77;;;;;;;24.01;49.86;100748.88;5053450;28;20035;-66
2022/08/05 05:00:57;;;;;;;1.98;1.55;;;;;;;24.03;49.95;100748.59;5053221;28;20025;-66
2022/08/05 05:03:22;;;;;;;2.33;1.63;;;;;;;24.09;50.04;100756.50;5053543;28;20037;-66
2022/08/05 05:05:48;;;;;;;1.80;1.70;;;;;;;24.04;49.58;100756.50;5053470;28;20477;-66
2022/08/05 05:08:13;;;;;;;1.98;1.77;;;;;;;24.05;49.66;100747.22;5053205;28;20032;-66
2022/08/05 05:10:43;;;;;;;1.88;1.70;;;;;;;23.99;49.96;100751.03;5053309;28;20025;-66
2022/08/05 05:13:10;;;;;;;1.80;1.63;;;;;;;24.02;49.93;100753.22;5053245;28;20025;-66
2022/08/05 05:15:35;;;;;;;1.80;1.70;;;;;;;24.06;49.93;100750.78;5051844;28;20530;-67
2022/08/05 05:18:01;;;;;;;2.30;1.80;;;;;;;23.94;50.42;100751.84;5053194;28;20121;-66
2022/08/05 05:20:26;;;;;;;1.90;1.67;;;;;;;23.99;50.03;100754.59;5053256;28;20025;-66
2022/08/05 05:22:52;;;;;;;1.73;1.63;;;;;;;23.92;50.86;100751.31;5053317;28;20127;-66
2022/08/05 05:25:17;;;;;;;2.08;1.88;;;;;;;23.96;50.52;100746.94;5053434;28;20048;-66
2022/08/05 05:27:43;;;;;;;1.90;1.70;;;;;;;23.90;50.52;100744.47;5053411;28;20483;-66
2022/08/05 05:30:09;;;;;;;2.35;1.90;;;;;;;24.00;50.30;100739.03;5051803;28;20029;-68
2022/08/05 05:32:34;;;;;;;2.28;2.08;;;;;;;23.99;50.22;100748.28;5052695;28;20052;-67
2022/08/05 05:35:01;;;;;;;2.22;2.00;;;;;;;23.98;50.80;100743.94;5053060;28;20128;-67
2022/08/05 05:37:27;;;;;;;1.80;1.70;;;;;;;24.19;50.01;100740.16;5052963;28;20029;-67
2022/08/05 05:39:52;;;;;;;2.10;1.90;;;;;;;24.22;50.13;100735.28;5053048;28;20379;-67
2022/08/05 05:42:17;;;;;;;1.77;1.67;;;;;;;24.25;50.01;100730.09;5052975;28;20467;-66
2022/08/05 05:44:43;;;;;;;2.15;1.70;;;;;;;24.27;50.13;100727.09;5052506;28;20490;-67
2022/08/05 05:47:08;;;;;;;2.10;1.75;;;;;;;24.24;50.10;100733.09;5052808;28;20036;-68
2022/08/05 05:49:34;;;;;;;1.83;1.73;;;;;;;24.32;49.53;100743.47;5053309;28;20040;-68
2022/08/05 05:51:59;;;;;;;1.63;1.52;;;;;;;24.39;49.48;100741.31;5057952;28;20024;-68
2022/08/05 05:54:25;;;;;;;1.75;1.65;;;;;;;24.42;49.42;100739.91;5073142;28;20427;-67
2022/08/05 05:56:50;;;;;;;2.08;1.83;;;;;;;24.41;49.29;100739.09;5072380;28;20025;-67
2022/08/05 05:59:16;;;;;;;1.90;1.65;;;;;;;24.37;49.99;100748.94;5072409;28;20028;-67
2022/08/05 06:01:41;;;;;;;3.60;1.55;;;;;;;24.40;49.95;100748.38;5072036;28;20037;-67
2022/08/05 06:04:07;;;;;;;1.70;1.60;;;;;;;24.42;50.01;100748.13;5072469;28;20051;-67
2022/08/05 06:06:33;;;;;;;1.95;1.73;;;;;;;24.33;50.21;100737.72;5071423;28;20032;-67
2022/08/05 06:08:59;;;;;;;1.70;1.60;;;;;;;24.42;49.85;100740.72;5072257;28;20036;-67
2022/08/05 06:11:24;;;;;;;3.55;2.08;;;;;;;24.35;50.13;100732.81;5071129;28;20029;-67
2022/08/05 06:13:50;;;;;;;2.50;1.70;;;;;;;24.37;49.82;100733.38;5072428;28;20024;-67
2022/08/05 06:16:15;;;;;;;1.70;1.60;;;;;;;24.34;49.91;100733.91;5072373;28;20029;-67
2022/08/05 06:18:40;;;;;;;2.40;1.90;;;;;;;24.44;49.92;100730.38;5072446;28;20040;-66
2022/08/05 06:21:06;;;;;;;1.75;1.60;;;;;;;24.50;49.69;100732.00;5072568;28;20056;-67
2022/08/05 06:23:31;;;;;;;1.67;1.58;;;;;;;24.52;49.80;100720.81;5072394;28;20078;-67
2022/08/05 06:25:57;;;;;;;1.60;1.50;;;;;;;24.34;50.38;100724.91;5072225;28;20509;-68
2022/08/05 06:28:22;;;;;;;1.80;1.70;;;;;;;24.39;50.11;100727.63;5072360;28;20031;-67
2022/08/05 06:30:48;;;;;;;1.70;1.60;;;;;;;24.34;50.43;100722.97;5072386;28;20025;-67
2022/08/05 06:33:13;;;;;;;2.13;2.03;;;;;;;24.27;50.88;100721.63;5070701;28;20048;-67
2022/08/05 06:35:39;;;;;;;1.85;1.75;;;;;;;24.27;50.40;100721.63;5073978;28;20033;-67
2022/08/05 06:38:04;;;;;;;2.58;1.80;;;;;;;24.31;50.58;100722.72;5080732;28;20020;-67
2022/08/05 06:40:29;;;;;;;1.90;1.80;;;;;;;24.37;50.37;100716.19;5079513;28;20090;-67
2022/08/05 06:42:55;;;;;;;1.77;1.67;;;;;;;24.38;50.26;100723.25;5077384;28;20043;-67
2022/08/05 06:45:21;;;;;;;1.70;1.60;;;;;;;24.35;50.30;100713.72;5078022;28;20120;-67
2022/08/05 06:47:46;;;;;;;2.00;1.90;;;;;;;24.35;50.75;100710.97;5077164;28;20017;-67
2022/08/05 06:50:11;;;;;;;2.00;1.90;;;;;;;24.31;50.91;100712.59;5077972;28;20028;-66
2022/08/05 06:52:37;;;;;;;3.75;1.95;;;;;;;24.34;50.50;100706.59;5067219;28;20024;-66
2022/08/05 06:55:03;;;;;;;2.00;1.60;;;;;;;24.28;50.53;100696.75;5054224;28;20025;-66
2022/08/05 06:57:28;;;;;;;2.22;2.03;;;;;;;24.28;50.65;100706.84;5056337;28;20036;-68
2022/08/05 06:59:54;;;;;;;1.77;1.67;;;;;;;24.28;50.86;100712.31;5055416;28;20433;-67
2022/08/05 07:02:19;;;;;;;2.53;1.52;;;;;;;24.22;51.05;100713.44;5055385;28;20028;-68
2022/08/05 07:04:45;;;;;;;2.47;1.95;;;;;;;24.24;50.68;100706.59;5055628;28;20029;-67
2022/08/05 07:07:10;;;;;;;2.78;2.10;;;;;;;24.33;50.89;100710.41;5055099;28;20443;-67
2022/08/05 07:09:35;;;;;;;4.05;1.67;;;;;;;24.13;51.60;100716.69;5055141;28;20151;-67
2022/08/05 07:12:01;;;;;;;2.35;1.77;;;;;;;23.93;52.11;100716.63;5053892;28;20031;-67
2022/08/05 07:17:10;;;;;;;2.03;1.92;;;;;;;24.01;52.05;100713.38;5055076;28;20035;-68
2022/08/05 07:19:36;;;;;;;4.30;1.90;;;;;;;23.86;52.66;100713.34;5055467;28;20025;-67
2022/08/05 07:22:01;;;;;;;2.80;2.20;;;;;;;23.77;53.09;100710.28;5053758;28;20029;-67
2022/08/05 07:24:27;;;;;;;3.95;2.15;;;;;;;23.71;53.11;100714.06;5054496;28;20025;-68
2022/08/05 07:26:52;;;;;;;2.75;2.05;;;;;;;23.69;53.05;100706.16;5054430;28;20063;-67
2022/08/05 07:29:18;;;;;;;3.15;2.15;;;;;;;23.67;53.44;100713.78;5055890;28;20051;-67
2022/08/05 07:31:43;;;;;;;3.92;2.35;;;;;;;24.05;51.96;100709.00;5054438;28;20056;-67
2022/08/05 07:34:09;;;;;;;3.58;2.35;;;;;;;24.23;51.32;100707.66;5055852;28;20022;-66
2022/08/05 07:36:34;;;;;;;2.33;2.13;;;;;;;24.37;51.16;100702.50;5056742;28;20116;-67
2022/08/05 07:39:04;;;;;;;2.85;2.20;;;;;;;24.48;51.12;100701.41;5038487;28;20108;-68
2022/08/05 07:41:29;;;;;;;1.92;1.80;;;;;;;24.58;50.51;100700.63;5055914;28;20064;-67
2022/08/05 07:43:55;;;;;;;2.40;2.15;;;;;;;24.56;50.36;100691.91;5054551;28;20459;-67
2022/08/05 07:46:21;;;;;;;2.50;2.30;;;;;;;24.50;50.60;100696.50;5054042;28;20028;-67
2022/08/05 07:48:46;;;;;;;2.88;2.40;;;;;;;24.55;50.44;100696.50;5055856;28;20021;-67
2022/08/05 07:51:14;;;;;;;2.38;2.17;;;;;;;24.57;50.28;100692.69;5055659;28;20037;-67
2022/08/05 07:53:40;;;;;;;2.70;2.40;;;;;;;24.57;50.30;100684.50;5055041;28;20333;-66
2022/08/05 07:56:06;;;;;;;2.22;2.03;;;;;;;24.66;50.08;100696.50;5055232;28;20120;-66
2022/08/05 07:58:31;;;;;;;3.35;2.08;;;;;;;24.60;49.97;100692.16;5055332;28;20021;-66
2022/08/05 08:00:57;;;;;;;3.53;2.13;;;;;;;24.69;50.33;100687.78;5057774;28;20433;-68
2022/08/05 08:03:23;;;;;;;2.38;2.17;;;;;;;24.61;49.95;100683.69;5054568;28;20029;-67
2022/08/05 08:05:52;;;;;;;3.28;2.10;;;;;;;24.65;50.13;100690.25;5055332;28;20479;-67
2022/08/05 08:08:18;;;;;;;2.20;2.00;;;;;;;24.67;50.32;100689.97;5054692;28;20028;-69
2022/08/05 08:10:44;;;;;;;1.88;1.75;;;;;;;24.64;50.57;100679.59;5053804;28;20036;-68
2022/08/05 08:13:10;;;;;;;5.30;2.03;;;;;;;24.69;50.29;100676.84;5056074;28;20021;-68
2022/08/05 08:15:35;;;;;;;2.30;2.00;;;;;;;24.70;49.91;100664.81;5055289;28;20028;-68
2022/08/05 08:18:01;;;;;;;5.32;2.15;;;;;;;24.63;50.53;100680.66;5055404;28;20021;-67
2022/08/05 08:20:26;;;;;;;3.33;1.83;;;;;;;24.72;49.95;100668.09;5037327;28;20029;-67
2022/08/05 08:22:52;;;;;;;2.00;1.70;;;;;;;24.73;49.77;100669.72;5054888;28;20029;-68
2022/08/05 08:25:18;;;;;;;4.57;1.77;;;;;;;24.68;50.03;100669.72;5054426;28;20053;-68
2022/08/05 08:27:44;;;;;;;2.15;1.95;;;;;;;24.70;49.71;100671.09;5053756;28;20386;-68
2022/08/05 08:30:12;;;;;;;1.70;1.60;;;;;;;24.72;49.71;100662.63;5055383;28;20036;-68
2022/08/05 08:32:38;;;;;;;1.92;1.55;;;;;;;24.79;49.38;100670.56;5053094;28;20127;-67
2022/08/05 08:35:04;;;;;;;3.80;1.63;;;;;;;24.82;49.12;100662.63;5053521;28;20490;-69
2022/08/05 08:37:30;;;;;;;1.73;1.60;;;;;;;24.81;48.98;100671.91;5053819;28;20081;-67
2022/08/05 08:39:55;;;;;;;1.83;1.70;;;;;;;24.80;49.21;100680.38;5054021;28;20158;-68
2022/08/05 08:42:21;;;;;;;1.85;1.75;;;;;;;24.83;48.71;100664.25;5037118;28;20024;-68
2022/08/05 08:44:47;;;;;;;1.70;1.60;;;;;;;24.79;49.00;100673.28;5053590;28;20061;-67
2022/08/05 08:47:12;;;;;;;2.38;1.63;;;;;;;24.83;48.85;100669.69;5053516;28;20017;-68
2022/08/05 08:49:38;;;;;;;1.98;1.67;;;;;;;24.84;48.41;100668.63;5053906;28;20029;-68
2022/08/05 08:52:18;;;;;;;2.85;1.80;;;;;;;24.83;48.44;100658.78;5056187;28;20035;-68
2022/08/05 08:54:46;;;;;;;1.90;1.80;;;;;;;24.82;48.44;100653.56;5072257;28;20029;-68
2022/08/05 08:57:11;;;;;;;2.00;1.80;;;;;;;24.83;48.32;100657.97;5073343;28;20024;-68
2022/08/05 08:59:37;;;;;;;1.90;1.65;;;;;;;24.82;48.54;100646.22;5072619;28;20094;-68
2022/08/05 09:02:05;;;;;;;1.77;1.52;;;;;;;24.83;48.37;100655.22;5073386;28;20112;-68
2022/08/05 09:04:32;;;;;;;1.90;1.70;;;;;;;24.81;48.28;100655.50;5073232;28;20052;-68
2022/08/05 09:06:57;;;;;;;1.60;1.50;;;;;;;24.79;48.59;100654.16;5072992;28;20020;-68
2022/08/05 09:09:23;;;;;;;1.67;1.50;;;;;;;24.81;48.24;100655.50;5071745;28;20024;-68
2022/08/05 09:11:49;;;;;;;2.38;1.65;;;;;;;24.85;48.30;100655.75;5072918;28;20082;-68
2022/08/05 09:14:14;;;;;;;1.83;1.58;;;;;;;24.81;48.24;100657.41;5073074;28;20021;-68
2022/08/05 09:16:39;;;;;;;2.25;2.05;;;;;;;24.92;48.01;100639.88;5073163;28;20470;-67
2022/08/05 09:19:07;;;;;;;2.28;1.90;;;;;;;24.89;48.16;100654.13;5071947;28;20040;-67
2022/08/05 09:21:33;;;;;;;3.03;2.10;;;;;;;24.83;47.95;100650.56;5072893;28;20467;-67
2022/08/05 09:24:03;;;;;;;1.73;1.58;;;;;;;24.87;47.75;100664.50;5073372;28;20062;-66
2022/08/05 09:26:29;;;;;;;2.47;2.00;;;;;;;24.83;47.80;100661.50;5073058;28;20501;-67
2022/08/05 09:28:58;;;;;;;2.42;1.98;;;;;;;24.84;47.82;100660.41;5073088;28;20103;-68
2022/08/05 09:31:24;;;;;;;2.58;1.80;;;;;;;24.85;47.75;100651.13;5071326;28;20094;-68
2022/08/05 09:33:54;;;;;;;1.85;1.67;;;;;;;24.91;47.40;100663.69;5072849;28;20040;-67
2022/08/05 09:36:19;;;;;;;2.75;1.80;;;;;;;24.86;47.73;100657.41;5072824;28;20028;-67
2022/08/05 09:39:12;;;;;;;2.28;1.75;;;;;;;24.86;47.93;100655.50;5072838;28;20021;-67
2022/08/05 09:41:57;;;;;;;2.30;1.98;;;;;;;24.88;47.39;100663.41;5070943;28;20486;-67
2022/08/05 09:44:35;;;;;;;2.25;1.90;;;;;;;24.86;47.73;100657.41;5072409;28;20474;-67
2022/08/05 09:47:17;;;;;;;1.92;1.70;;;;;;;24.85;47.57;100656.59;5072240;28;20028;-67
2022/08/05 09:49:47;;;;;;;1.90;1.80;;;;;;;24.89;47.28;100656.88;5072868;28;20028;-67
2022/08/05 09:52:46;;;;;;;1.60;1.50;;;;;;;24.93;47.03;100658.75;5073351;28;20020;-68
2022/08/05 09:55:12;;;;;;;2.13;1.70;;;;;;;24.70;47.85;100645.69;5072292;28;20045;-68
2022/08/05 09:57:46;;;;;;;1.80;1.70;;;;;;;24.79;47.56;100649.50;5073741;28;20031;-67
2022/08/05 10:00:18;;;;;;;2.00;1.80;;;;;;;24.86;47.36;100652.75;5071573;28;20029;-67
2022/08/05 10:02:48;;;;;;;2.90;1.83;;;;;;;24.86;47.02;100650.03;5073517;28;20028;-67
2022/08/05 10:05:17;;;;;;;2.08;1.90;;;;;;;24.92;46.88;100651.66;5073552;28;20016;-66
2022/08/05 10:07:56;;;;;;;2.42;1.60;;;;;;;24.96;46.91;100648.34;5071288;28;20107;-66
2022/08/05 10:10:23;;;;;;;1.90;1.52;;;;;;;24.97;46.90;100642.59;5075467;28;20112;-66
2022/08/05 10:12:56;;;;;;;3.05;1.60;;;;;;;24.97;46.61;100650.00;5076731;28;20370;-67
2022/08/05 10:15:31;;;;;;;2.42;1.92;;;;;;;25.04;46.45;100642.31;5077116;28;20029;-66
2022/08/05 10:18:06;;;;;;;1.88;1.77;;;;;;;24.95;46.56;100655.75;5076530;28;20394;-66
2022/08/05 10:20:32;;;;;;;1.88;1.60;;;;;;;24.98;46.34;100654.38;5076424;28;20389;-67
2022/08/05 10:22:57;;;;;;;2.78;1.65;;;;;;;25.00;46.40;100639.31;5075455;28;20041;-67
2022/08/05 10:25:23;;;;;;;2.25;1.90;;;;;;;25.07;46.21;100639.03;5077071;28;20021;-67
2022/08/05 10:27:49;;;;;;;2.03;1.83;;;;;;;25.11;45.84;100642.84;5077272;28;20048;-67
2022/08/05 10:30:14;;;;;;;1.73;1.60;;;;;;;25.04;45.95;100640.41;5076301;28;20102;-67
2022/08/05 10:32:39;;;;;;;1.75;1.63;;;;;;;24.94;46.04;100632.25;5075610;28;20047;-68
2022/08/05 10:35:05;;;;;;;1.48;1.38;;;;;;;24.92;46.04;100634.41;5058155;28;20462;-68
2022/08/05 10:37:31;;;;;;;3.42;1.70;;;;;;;24.93;46.19;100636.88;5076510;28;20480;-68
2022/08/05 10:39:57;;;;;;;1.55;1.45;;;;;;;25.02;45.96;100639.03;5058308;28;20558;-68
2022/08/05 10:42:23;;;;;;;1.80;1.52;;;;;;;25.00;46.06;100635.78;5058249;28;20519;-67
2022/08/05 10:44:49;;;;;;;1.90;1.80;;;;;;;24.96;45.82;100630.06;5076263;28;20064;-67
2022/08/05 10:47:16;;;;;;;1.42;1.30;;;;;;;25.01;45.38;100631.94;5058330;28;20020;-67
2022/08/05 10:50:11;;;;;;;2.38;2.17;;;;;;;25.00;45.21;100635.78;5075424;28;20090;-67
2022/08/05 10:52:42;;;;;;;6.50;4.47;;;;;;;25.01;44.95;100634.66;5070837;28;20033;-67
2022/08/05 10:55:09;;;;;;;8.80;5.15;;;;;;;25.03;45.06;100627.84;5055741;28;20079;-67
2022/08/05 10:57:36;;;;;;;9.25;5.40;;;;;;;25.04;44.85;100625.91;5056216;28;20036;-67
2022/08/05 11:00:15;;;;;;;8.65;5.00;;;;;;;25.04;44.57;100617.72;5056015;28;20364;-68
2022/08/05 11:03:02;;;;;;;6.25;3.60;;;;;;;25.09;44.36;100623.16;5056110;28;20098;-68
2022/08/05 11:05:28;;;;;;;7.00;3.63;;;;;;;25.04;44.58;100626.75;5056143;28;20032;-67
2022/08/05 11:07:58;;;;;;;5.85;3.60;;;;;;;25.09;44.44;100625.88;5054643;28;20577;-67
2022/08/05 11:10:24;;;;;;;4.63;3.05;;;;;;;25.09;44.42;100620.44;5055459;28;20470;-67
2022/08/05 11:12:50;;;;;;;4.30;2.50;;;;;;;25.09;44.40;100624.00;5055821;28;20041;-67
2022/08/05 11:15:15;;;;;;;4.15;2.80;;;;;;;25.11;44.37;100629.16;5055479;28;20055;-67
2022/08/05 11:17:41;;;;;;;5.75;2.50;;;;;;;25.12;44.28;100623.41;5055519;28;20111;-68
2022/08/05 11:20:27;;;;;;;3.13;2.22;;;;;;;25.11;44.28;100623.69;5055753;28;20032;-68
2022/08/05 11:22:53;;;;;;;2.63;2.10;;;;;;;25.17;44.45;100624.50;5055090;28;20033;-67
2022/08/05 11:25:37;;;;;;;2.85;1.95;;;;;;;25.18;44.17;100626.97;5055435;28;20064;-67
2022/08/05 11:28:11;;;;;;;2.70;1.75;;;;;;;25.16;44.12;100623.69;5055318;28;20049;-68